EGMD METAR and TAF | Updated Today

EGMD METAR

Lydd Airport

Observation time: 24 min. ago

EGMD 061850Z AUTO 09007KT 9999 NCD 05/03 Q1040

Need help? Read our tutorial on how to read METARs or read the parsed version below.

Lydd Airport (EGMD) METAR

  • Weather conditions on Mon, 06 Feb 2023 18:50:00 +0000 (24 min. ago):
  • Present conditions: Dry
  • Clouds: Nil cloud detected
  • Visibility: Greater than 10 km
  • Wind: 90 degrees at 7 knots
  • Temperature: 5 celsius
  • Dew point: 3 celsius
  • Pressure: 1040 millibars
  • Remarks: None


Useful to know...

EGMD TAF

Lydd Airport

TAF EGMD 061657Z 0618/0703 VRB02KT CAVOK PROB30 0618/0703 6000
Observation time: 2:17 hr. ago
Need help? Read our tutorial on how to read TAFs or read the parsed version below.

Parsed version of TAF for Lydd Airport (EGMD)

  • From 06 February at 18:00 UTC, to day 07 of the month at 03:00 UTC
  • Visibility: Greater than 10 km
  • Wind: Variable at 2
  • From 06 February at 18:00 UTC, to day 07 of the month at 03:00 UTC
    Probability of 30%
  • Visibility: 6000 meters